createdAt,value
2023-02-17T00:00:37.779Z,9.20
2023-02-17T00:03:59.759Z,9.10
2023-02-17T00:07:21.366Z,9.20
2023-02-17T00:10:43.326Z,9.10
2023-02-17T00:14:06.238Z,9.20
2023-02-17T00:17:27.826Z,9.20
2023-02-17T00:20:49.455Z,9.20
2023-02-17T00:24:11.004Z,9.20
2023-02-17T00:27:32.624Z,9.10
2023-02-17T00:30:55.616Z,9.10
2023-02-17T00:34:17.455Z,9.10
2023-02-17T00:37:39.015Z,9.10
2023-02-17T00:41:00.609Z,9.10
2023-02-17T00:44:22.954Z,9.00
2023-02-17T00:47:45.855Z,8.90
2023-02-17T00:51:07.630Z,8.90
2023-02-17T00:54:29.263Z,8.90
2023-02-17T00:57:50.810Z,8.90
2023-02-17T01:01:12.421Z,8.90
2023-02-17T01:04:35.400Z,8.90
2023-02-17T01:07:57.061Z,8.80
2023-02-17T01:11:18.723Z,8.90
2023-02-17T01:14:40.319Z,8.80
2023-02-17T01:18:01.847Z,8.80
2023-02-17T01:21:25.629Z,8.70
2023-02-17T01:24:47.195Z,8.70
2023-02-17T01:28:10.844Z,8.60
2023-02-17T01:31:32.775Z,8.60
2023-02-17T01:34:54.458Z,8.60
2023-02-17T01:38:17.363Z,8.60
2023-02-17T01:41:38.941Z,8.50
2023-02-17T01:45:19.046Z,8.50
2023-02-17T01:48:42.799Z,8.50
2023-02-17T01:52:07.255Z,8.50
2023-02-17T01:55:31.874Z,8.50
2023-02-17T01:58:56.471Z,8.50
2023-02-17T02:02:18.299Z,8.40
2023-02-17T02:05:41.007Z,8.30
2023-02-17T02:09:04.161Z,8.20
2023-02-17T02:12:28.224Z,8.20
2023-02-17T02:15:53.449Z,8.20
2023-02-17T02:19:26.368Z,8.10
2023-02-17T02:23:06.494Z,8.20
2023-02-17T02:26:42.942Z,8.20
2023-02-17T02:30:23.432Z,8.10
2023-02-17T02:33:48.876Z,8.10
2023-02-17T02:37:14.445Z,8.10
2023-02-17T02:40:37.600Z,8.00
2023-02-17T02:43:59.242Z,8.00
2023-02-17T02:47:42.040Z,7.90
2023-02-17T02:51:20.721Z,7.80
2023-02-17T02:54:48.394Z,7.80
2023-02-17T02:58:16.805Z,7.80
2023-02-17T03:01:43.414Z,7.80
2023-02-17T03:05:09.681Z,7.80
2023-02-17T03:08:35.053Z,7.70
2023-02-17T03:11:57.598Z,7.80
2023-02-17T03:15:22.439Z,8.00
2023-02-17T03:18:44.126Z,8.10
2023-02-17T03:22:07.686Z,8.30
2023-02-17T03:25:30.621Z,8.40
2023-02-17T03:28:52.473Z,8.50
2023-02-17T03:32:14.082Z,8.60
2023-02-17T03:35:35.711Z,8.70
2023-02-17T03:38:57.726Z,8.70
2023-02-17T03:42:20.670Z,8.80
2023-02-17T03:45:42.262Z,8.80
2023-02-17T03:49:03.859Z,8.80
2023-02-17T03:52:25.457Z,8.80
2023-02-17T03:55:47.025Z,8.70
2023-02-17T03:59:09.968Z,8.70
2023-02-17T04:02:31.551Z,8.70
2023-02-17T04:05:53.142Z,8.70
2023-02-17T04:09:14.755Z,8.60
2023-02-17T04:12:36.552Z,8.50
2023-02-17T04:15:59.549Z,8.40
2023-02-17T04:19:21.408Z,8.40
2023-02-17T04:22:43.006Z,8.40
2023-02-17T04:26:05.956Z,8.50
2023-02-17T04:29:27.762Z,8.60
2023-02-17T04:32:50.708Z,8.70
2023-02-17T04:36:12.308Z,8.80
2023-02-17T04:39:33.948Z,8.80
2023-02-17T04:42:55.554Z,8.80
2023-02-17T04:46:17.192Z,8.80
2023-02-17T04:49:40.145Z,8.70
2023-02-17T04:53:01.821Z,8.60
2023-02-17T04:56:23.410Z,8.60
2023-02-17T04:59:45.147Z,8.50
2023-02-17T05:03:08.478Z,8.50
2023-02-17T05:06:31.520Z,8.60
2023-02-17T05:09:53.122Z,8.60
2023-02-17T05:13:14.692Z,8.50
2023-02-17T05:16:36.450Z,8.50
2023-02-17T05:19:58.273Z,8.40
2023-02-17T05:23:21.205Z,8.20
2023-02-17T05:26:42.872Z,8.20
2023-02-17T05:30:05.247Z,8.10
2023-02-17T05:33:26.868Z,8.10
2023-02-17T05:36:48.457Z,8.00
2023-02-17T05:40:11.752Z,8.00
2023-02-17T05:43:33.485Z,8.10
2023-02-17T05:46:55.096Z,8.10
2023-02-17T05:50:16.783Z,8.10
2023-02-17T05:53:38.370Z,8.20
2023-02-17T05:57:01.342Z,8.20
2023-02-17T06:00:23.018Z,8.20
2023-02-17T06:03:44.642Z,8.20
2023-02-17T06:07:06.264Z,8.20
2023-02-17T06:10:27.915Z,8.30
2023-02-17T06:13:50.859Z,8.40
2023-02-17T06:17:12.462Z,8.40
2023-02-17T06:20:34.068Z,8.50
2023-02-17T06:23:55.655Z,8.60
2023-02-17T06:27:17.240Z,8.70
2023-02-17T06:30:40.204Z,8.70
2023-02-17T06:34:01.828Z,8.80
2023-02-17T06:37:23.410Z,8.80
2023-02-17T06:40:45.198Z,8.90
2023-02-17T06:44:07.272Z,8.90
2023-02-17T06:47:30.445Z,8.90
2023-02-17T06:50:52.289Z,8.90
2023-02-17T06:54:13.921Z,9.00
2023-02-17T06:57:35.578Z,9.00
2023-02-17T07:00:57.199Z,9.10
2023-02-17T07:04:20.203Z,9.10
2023-02-17T07:07:41.788Z,9.10
2023-02-17T07:11:05.181Z,9.10
2023-02-17T07:14:26.757Z,9.10
2023-02-17T07:17:48.347Z,9.20
2023-02-17T07:21:11.313Z,9.20
2023-02-17T07:24:32.885Z,9.20
2023-02-17T07:27:55.483Z,9.20
2023-02-17T07:31:17.717Z,9.30
2023-02-17T07:34:39.370Z,9.30
2023-02-17T07:38:02.374Z,9.40
2023-02-17T07:41:24.988Z,9.60
2023-02-17T07:44:46.626Z,9.70
2023-02-17T07:48:08.260Z,9.80
2023-02-17T07:51:29.916Z,9.90
2023-02-17T07:54:52.899Z,10.00
2023-02-17T07:58:14.508Z,10.10
2023-02-17T08:01:36.544Z,10.10
2023-02-17T08:04:58.164Z,10.30
2023-02-17T08:08:20.751Z,10.30
2023-02-17T08:11:45.144Z,10.30
2023-02-17T08:15:08.204Z,10.30
2023-02-17T08:18:34.378Z,10.40
2023-02-17T08:21:57.780Z,10.40
2023-02-17T08:25:19.543Z,10.40
2023-02-17T08:28:42.483Z,10.50
2023-02-17T08:32:04.699Z,10.80
2023-02-17T08:35:27.618Z,11.20
2023-02-17T08:38:49.474Z,11.60
2023-02-17T08:42:11.088Z,11.90
2023-02-17T08:45:34.052Z,12.00
2023-02-17T08:48:55.795Z,12.00
2023-02-17T08:52:17.378Z,12.10
2023-02-17T08:55:48.930Z,11.90
2023-02-17T08:59:11.854Z,11.60
2023-02-17T09:02:34.885Z,11.50
2023-02-17T09:05:58.161Z,11.60
2023-02-17T09:09:24.133Z,11.90
2023-02-17T09:12:48.326Z,12.00
2023-02-17T09:16:10.497Z,11.90
2023-02-17T09:19:33.838Z,11.70
2023-02-17T09:22:55.400Z,11.70
2023-02-17T09:26:17.825Z,11.50
2023-02-17T09:29:39.478Z,11.60
2023-02-17T09:33:01.294Z,11.50
2023-02-17T09:36:28.202Z,11.40
2023-02-17T09:39:50.290Z,11.30
2023-02-17T09:43:14.128Z,11.20
2023-02-17T09:46:36.906Z,11.30
2023-02-17T09:50:02.252Z,11.40
2023-02-17T09:53:27.878Z,11.40
2023-02-17T09:56:51.272Z,11.40
2023-02-17T10:00:14.405Z,11.50
2023-02-17T10:03:38.377Z,11.50
2023-02-17T10:07:01.822Z,11.70
2023-02-17T10:10:27.368Z,11.80
2023-02-17T10:13:51.139Z,11.80
2023-02-17T10:17:15.133Z,11.80
2023-02-17T10:20:41.256Z,11.90
2023-02-17T10:24:02.843Z,12.20
2023-02-17T10:27:30.082Z,12.70
2023-02-17T10:30:56.709Z,13.00
2023-02-17T10:34:21.932Z,13.00
2023-02-17T10:37:45.649Z,12.80
2023-02-17T10:41:10.816Z,12.60
2023-02-17T10:44:36.579Z,12.40
2023-02-17T10:48:01.838Z,12.40
2023-02-17T10:51:25.445Z,12.60
2023-02-17T10:54:50.504Z,12.90
2023-02-17T10:58:13.920Z,13.00
2023-02-17T11:01:36.991Z,13.20
2023-02-17T11:04:58.666Z,13.70
2023-02-17T11:08:25.645Z,13.70
2023-02-17T11:11:51.990Z,13.50
2023-02-17T11:15:15.463Z,13.60
2023-02-17T11:18:40.420Z,13.50
2023-02-17T11:22:02.932Z,13.60
2023-02-17T11:25:25.340Z,13.40
2023-02-17T11:28:46.956Z,13.50
2023-02-17T11:32:10.942Z,13.50
2023-02-17T11:35:45.681Z,13.60
2023-02-17T11:39:19.916Z,13.80
2023-02-17T11:42:41.494Z,13.90
2023-02-17T11:46:08.903Z,13.90
2023-02-17T11:49:54.147Z,14.10
2023-02-17T11:53:23.463Z,13.90
2023-02-17T11:56:47.034Z,13.70
2023-02-17T12:00:14.295Z,13.60
2023-02-17T12:03:42.938Z,13.30
2023-02-17T12:07:14.481Z,13.30
2023-02-17T12:10:44.170Z,13.20
2023-02-17T12:14:16.722Z,13.20
2023-02-17T12:17:43.836Z,13.20
2023-02-17T12:21:08.735Z,13.20
2023-02-17T12:24:37.166Z,13.20
2023-02-17T12:28:05.742Z,13.30
2023-02-17T12:31:38.133Z,13.20
2023-02-17T12:35:01.309Z,13.20
2023-02-17T12:38:24.881Z,13.20
2023-02-17T12:41:48.043Z,13.20
2023-02-17T12:45:17.108Z,13.20
2023-02-17T12:48:41.170Z,13.20
2023-02-17T12:52:06.191Z,13.10
2023-02-17T12:55:30.775Z,13.20
2023-02-17T12:58:53.726Z,13.20
2023-02-17T13:02:17.553Z,13.20
2023-02-17T13:05:40.809Z,13.30
2023-02-17T13:09:05.487Z,13.20
2023-02-17T13:12:32.879Z,13.20
2023-02-17T13:16:01.802Z,13.20
2023-02-17T13:19:31.289Z,13.10
2023-02-17T13:23:03.105Z,13.00
2023-02-17T13:26:26.523Z,13.00
2023-02-17T13:29:58.567Z,12.90
2023-02-17T13:33:28.231Z,13.00
2023-02-17T13:36:51.316Z,13.10
2023-02-17T13:40:27.997Z,13.20
2023-02-17T13:43:49.755Z,13.20
2023-02-17T13:47:14.138Z,13.10
2023-02-17T13:50:36.780Z,13.10
2023-02-17T13:54:06.362Z,13.20
2023-02-17T13:57:29.177Z,13.10
2023-02-17T14:00:51.017Z,13.20
2023-02-17T14:04:23.272Z,13.50
2023-02-17T14:07:46.415Z,13.80
2023-02-17T14:11:10.428Z,13.80
2023-02-17T14:14:33.615Z,13.80
2023-02-17T14:17:55.499Z,13.60
2023-02-17T14:21:23.787Z,13.40
2023-02-17T14:24:45.540Z,13.20
2023-02-17T14:28:18.884Z,13.10
2023-02-17T14:31:42.262Z,13.10
2023-02-17T14:35:20.077Z,13.20
2023-02-17T14:38:42.257Z,13.30
2023-02-17T14:42:04.155Z,13.10
2023-02-17T14:45:27.107Z,13.10
2023-02-17T14:48:49.262Z,13.10
2023-02-17T14:52:17.059Z,13.10
2023-02-17T14:55:48.863Z,13.10
2023-02-17T14:59:11.315Z,13.00
2023-02-17T15:02:34.644Z,12.90
2023-02-17T15:05:56.466Z,12.80
2023-02-17T15:09:19.480Z,12.80
2023-02-17T15:12:41.067Z,12.70
2023-02-17T15:16:02.685Z,12.70
2023-02-17T15:19:25.673Z,12.70
2023-02-17T15:22:47.304Z,12.70
2023-02-17T15:26:09.442Z,12.70
2023-02-17T15:29:31.400Z,12.70
2023-02-17T15:32:53.020Z,12.60
2023-02-17T15:36:16.568Z,12.60
2023-02-17T15:39:38.220Z,12.60
2023-02-17T15:42:59.820Z,12.50
2023-02-17T15:46:23.267Z,12.50
2023-02-17T15:49:44.910Z,12.50
2023-02-17T15:53:07.873Z,12.50
2023-02-17T15:56:31.848Z,12.50
2023-02-17T15:59:53.446Z,12.50
2023-02-17T16:03:16.652Z,12.50
2023-02-17T16:06:38.848Z,12.50
2023-02-17T16:10:01.811Z,12.50
2023-02-17T16:13:25.815Z,12.50
2023-02-17T16:16:47.443Z,12.40
2023-02-17T16:20:14.034Z,12.50
2023-02-17T16:23:35.638Z,12.40
2023-02-17T16:26:59.197Z,12.30
2023-02-17T16:30:21.716Z,12.30
2023-02-17T16:33:43.401Z,12.10
2023-02-17T16:37:11.053Z,12.10
2023-02-17T16:40:34.843Z,12.10
2023-02-17T16:43:57.778Z,12.10
2023-02-17T16:47:20.440Z,12.10
2023-02-17T16:50:43.622Z,12.00
2023-02-17T16:54:05.256Z,11.90
2023-02-17T16:57:26.870Z,11.90
2023-02-17T17:00:50.535Z,12.00
2023-02-17T17:04:12.310Z,12.20
2023-02-17T17:07:33.928Z,12.20
2023-02-17T17:10:55.532Z,12.20
2023-02-17T17:14:17.141Z,12.30
2023-02-17T17:17:42.414Z,12.30
2023-02-17T17:21:04.171Z,12.30
2023-02-17T17:24:25.785Z,12.40
2023-02-17T17:27:47.417Z,12.40
2023-02-17T17:31:09.866Z,12.40
2023-02-17T17:34:32.869Z,12.40
2023-02-17T17:37:54.592Z,12.40
2023-02-17T17:41:16.330Z,12.40
2023-02-17T17:44:37.993Z,12.30
2023-02-17T17:47:59.670Z,12.40
2023-02-17T17:51:22.725Z,12.40
2023-02-17T17:54:44.306Z,12.40
2023-02-17T17:58:05.967Z,12.40
2023-02-17T18:01:27.826Z,12.30
2023-02-17T18:04:49.538Z,12.30
2023-02-17T18:08:12.560Z,12.30
2023-02-17T18:11:34.848Z,12.30
2023-02-17T18:14:56.798Z,12.30
2023-02-17T18:18:18.666Z,12.30
2023-02-17T18:21:40.331Z,12.30
2023-02-17T18:25:03.417Z,12.20
2023-02-17T18:28:25.008Z,12.20
2023-02-17T18:31:47.022Z,12.20
2023-02-17T18:35:08.964Z,12.20
2023-02-17T18:38:30.550Z,12.10
2023-02-17T18:41:53.776Z,12.10
2023-02-17T18:45:16.140Z,12.10
2023-02-17T18:48:37.736Z,12.10
2023-02-17T18:51:59.401Z,12.10
2023-02-17T18:55:21.010Z,12.10
2023-02-17T18:58:44.007Z,12.00
2023-02-17T19:02:05.650Z,12.00
2023-02-17T19:05:27.793Z,12.00
2023-02-17T19:08:49.723Z,12.00
2023-02-17T19:12:13.139Z,11.90
2023-02-17T19:15:36.241Z,11.90
2023-02-17T19:18:58.012Z,11.90
2023-02-17T19:22:19.691Z,11.90
2023-02-17T19:25:41.365Z,11.80
2023-02-17T19:29:02.954Z,11.80
2023-02-17T19:32:25.931Z,11.80
2023-02-17T19:35:47.536Z,11.80
2023-02-17T19:39:09.282Z,11.70
2023-02-17T19:42:30.881Z,11.70
2023-02-17T19:45:52.700Z,11.70
2023-02-17T19:49:15.714Z,11.60
2023-02-17T19:52:37.330Z,11.60
2023-02-17T19:56:06.362Z,11.60
2023-02-17T19:59:28.432Z,11.60
2023-02-17T20:02:50.050Z,11.50
2023-02-17T20:06:14.403Z,11.50
2023-02-17T20:09:36.120Z,11.50
2023-02-17T20:12:57.718Z,11.40
2023-02-17T20:16:19.353Z,11.50
2023-02-17T20:19:41.013Z,11.40
2023-02-17T20:23:03.988Z,11.40
2023-02-17T20:26:27.388Z,11.40
2023-02-17T20:29:49.032Z,11.30
2023-02-17T20:33:11.450Z,11.30
2023-02-17T20:36:33.552Z,11.30
2023-02-17T20:39:56.770Z,11.30
2023-02-17T20:43:18.404Z,11.30
2023-02-17T20:46:41.227Z,11.20
2023-02-17T20:50:03.570Z,11.20
2023-02-17T20:53:26.106Z,11.20
2023-02-17T20:56:49.768Z,11.20
2023-02-17T21:00:13.619Z,11.10
2023-02-17T21:03:35.286Z,11.10
2023-02-17T21:06:56.892Z,11.10
2023-02-17T21:10:19.895Z,11.10
2023-02-17T21:13:42.962Z,11.10
2023-02-17T21:17:04.791Z,11.10
2023-02-17T21:20:26.393Z,11.10
2023-02-17T21:23:48.183Z,11.00
2023-02-17T21:27:09.827Z,11.00
2023-02-17T21:30:32.784Z,11.00
2023-02-17T21:33:54.401Z,11.00
2023-02-17T21:37:16.223Z,11.00
2023-02-17T21:40:38.042Z,11.00
2023-02-17T21:43:59.710Z,11.00
2023-02-17T21:47:22.732Z,11.00
2023-02-17T21:50:44.353Z,11.00
2023-02-17T21:54:06.628Z,11.00
2023-02-17T21:57:28.426Z,11.00
2023-02-17T22:00:50.084Z,11.10
2023-02-17T22:04:13.272Z,11.10
2023-02-17T22:07:35.104Z,11.10
2023-02-17T22:10:56.723Z,11.10
2023-02-17T22:14:19.678Z,11.10
2023-02-17T22:17:41.343Z,11.20
2023-02-17T22:21:06.562Z,11.20
2023-02-17T22:24:28.145Z,11.20
2023-02-17T22:27:50.092Z,11.20
2023-02-17T22:31:12.035Z,11.30
2023-02-17T22:34:33.656Z,11.30
2023-02-17T22:37:56.697Z,11.30
2023-02-17T22:41:19.171Z,11.30
2023-02-17T22:44:40.806Z,11.30
2023-02-17T22:48:02.374Z,11.30
2023-02-17T22:51:25.055Z,11.30
2023-02-17T22:54:48.049Z,11.30
2023-02-17T22:58:09.630Z,11.30
2023-02-17T23:01:32.329Z,11.20
2023-02-17T23:04:53.932Z,11.20
2023-02-17T23:08:15.722Z,11.20
2023-02-17T23:11:39.467Z,11.20
2023-02-17T23:15:01.076Z,11.20
2023-02-17T23:18:22.656Z,11.10
2023-02-17T23:21:45.050Z,11.10
2023-02-17T23:25:06.836Z,11.10
2023-02-17T23:28:29.936Z,11.10
2023-02-17T23:31:51.573Z,11.10
2023-02-17T23:35:13.283Z,11.10
2023-02-17T23:38:34.995Z,11.10
2023-02-17T23:41:56.601Z,11.10
2023-02-17T23:45:19.724Z,11.10
2023-02-17T23:48:41.366Z,11.10
2023-02-17T23:52:03.128Z,11.10
2023-02-17T23:55:24.710Z,11.10
2023-02-17T23:58:46.323Z,11.10
